KAUH

Details ICAO KAUH
Name AURORA MUNI AL POTTER FLD
Region United States
Timezone America/Chicago (UTC-5.0)
Plans Departing 0
Arriving 2
Stats Elevation 1,804 ft / 550 m (AMSL)
Location 40.894129° -97.994529°
Runways 1
Magnetic Variation 3.978° E
Sunrise 2018-05-21 11:10:37 UTC / 2018-05-21 06:10:37 Local
Sunset 2018-05-22 01:49:25 UTC / 2018-05-21 20:49:25 Local
Advertisement - Login to hide

Runways

ID Width Length Bearing (true) Bearing (mag) Surface Threshold Offset Overrun Length
16 75 ft / 23 m 4,304 ft / 1,312 m 168.80° 164.82° Asphalt 0 ft / 0 m 0 ft / 0 m
34 75 ft / 23 m 4,304 ft / 1,312 m 348.80° 344.82° Asphalt 0 ft / 0 m 0 ft / 0 m

Map

Weather


0- 5 10 15 20 25 30 35+ Temperature / ° C

Clouds and Precipitation
Forecast for 2018-05-21 12:00 UTC. Updated 23 minutes ago

Ground ~20,000 ft ~40,000 ft Winds

METAR

KAUH 210935Z AUTO 28004KT 1/4SM FG OVC001 08/08 A3008 RMK AO2 T00830083

TAF

Not found

Frequencies

Recorded 121.22 MHz AWOS 3
Unicom 122.80 MHz CTAF/UNICOM
Warning: Do not use this data for real-world aviation or navigation. No guarantee of current accuracy is given.